createdAt,value
2019-05-13T00:01:06.798Z,6.08
2019-05-13T00:03:33.557Z,5.72
2019-05-13T00:06:04.138Z,6.05
2019-05-13T00:08:34.062Z,6.90
2019-05-13T00:11:04.410Z,6.33
2019-05-13T00:13:34.361Z,6.70
2019-05-13T00:16:03.971Z,7.05
2019-05-13T00:18:34.109Z,6.90
2019-05-13T00:21:03.805Z,6.40
2019-05-13T00:23:33.953Z,6.58
2019-05-13T00:26:03.746Z,7.10
2019-05-13T00:28:34.289Z,7.50
2019-05-13T00:31:04.478Z,7.05
2019-05-13T00:33:34.142Z,7.28
2019-05-13T00:36:04.087Z,7.30
2019-05-13T00:38:33.774Z,7.95
2019-05-13T00:41:03.849Z,9.53
2019-05-13T00:43:34.005Z,7.75
2019-05-13T00:46:03.980Z,8.25
2019-05-13T00:48:33.697Z,7.37
2019-05-13T00:51:03.741Z,7.70
2019-05-13T00:53:35.297Z,7.78
2019-05-13T00:56:04.788Z,7.45
2019-05-13T00:58:34.494Z,6.97
2019-05-13T01:01:03.965Z,7.30
2019-05-13T01:03:33.937Z,8.13
2019-05-13T01:06:04.287Z,7.22
2019-05-13T01:08:34.585Z,8.10
2019-05-13T01:11:04.527Z,7.70
2019-05-13T01:13:34.222Z,8.38
2019-05-13T01:16:03.967Z,7.65
2019-05-13T01:18:33.984Z,8.03
2019-05-13T01:21:04.488Z,8.10
2019-05-13T01:23:34.582Z,7.22
2019-05-13T01:26:04.188Z,7.20
2019-05-13T01:28:34.419Z,7.35
2019-05-13T01:31:04.371Z,7.12
2019-05-13T01:33:35.363Z,7.58
2019-05-13T01:36:05.545Z,7.12
2019-05-13T01:38:35.334Z,7.42
2019-05-13T01:41:04.695Z,7.40
2019-05-13T01:43:34.259Z,7.28
2019-05-13T01:46:06.568Z,7.23
2019-05-13T01:48:36.002Z,7.67
2019-05-13T01:51:05.606Z,7.30
2019-05-13T01:53:35.188Z,8.40
2019-05-13T01:56:04.523Z,7.70
2019-05-13T01:58:34.157Z,7.60
2019-05-13T02:01:05.206Z,7.73
2019-05-13T02:03:34.807Z,8.23
2019-05-13T02:06:04.061Z,7.78
2019-05-13T02:08:33.815Z,8.13
2019-05-13T02:11:04.449Z,7.53
2019-05-13T02:13:34.364Z,8.05
2019-05-13T02:16:04.504Z,7.42
2019-05-13T02:18:34.466Z,7.57
2019-05-13T02:22:44.179Z,7.80
2019-05-13T02:25:13.800Z,7.40
2019-05-13T02:27:44.126Z,7.60
2019-05-13T02:30:16.325Z,7.30
2019-05-13T02:32:44.442Z,9.18
2019-05-13T02:35:14.261Z,7.35
2019-05-13T02:37:43.975Z,7.78
2019-05-13T02:40:13.981Z,7.62
2019-05-13T02:42:43.981Z,7.83
2019-05-13T02:45:14.936Z,7.83
2019-05-13T02:47:44.438Z,7.50
2019-05-13T02:50:13.897Z,7.60
2019-05-13T02:52:44.284Z,8.00
2019-05-13T02:55:13.729Z,7.45
2019-05-13T02:57:43.976Z,8.13
2019-05-13T03:00:15.097Z,8.05
2019-05-13T03:02:44.455Z,7.78
2019-05-13T03:05:14.191Z,8.18
2019-05-13T03:07:43.436Z,7.87
2019-05-13T03:10:14.236Z,7.97
2019-05-13T03:12:43.407Z,8.90
2019-05-13T03:15:13.651Z,8.03
2019-05-13T03:18:03.428Z,7.70
2019-05-13T03:20:33.525Z,7.80
2019-05-13T03:23:03.407Z,8.30
2019-05-13T03:25:33.334Z,8.40
2019-05-13T03:28:03.590Z,7.90
2019-05-13T03:30:35.398Z,8.10
2019-05-13T03:33:10.911Z,8.13
2019-05-13T03:35:37.215Z,8.88
2019-05-13T03:38:06.666Z,8.30
2019-05-13T03:40:37.694Z,8.83
2019-05-13T03:43:12.649Z,8.55
2019-05-13T03:45:43.290Z,8.33
2019-05-13T03:48:13.741Z,9.50
2019-05-13T03:50:43.502Z,10.03
2019-05-13T03:53:13.269Z,9.55
2019-05-13T03:55:43.645Z,8.68
2019-05-13T03:58:13.584Z,9.63
2019-05-13T04:00:42.995Z,9.30
2019-05-13T04:03:15.177Z,9.20
2019-05-13T04:05:44.220Z,9.40
2019-05-13T04:08:13.574Z,9.13
2019-05-13T04:10:43.118Z,9.15
2019-05-13T04:13:13.308Z,9.20
2019-05-13T04:15:43.357Z,9.15
2019-05-13T04:18:13.246Z,8.93
2019-05-13T04:20:43.020Z,9.08
2019-05-13T04:23:15.289Z,9.63
2019-05-13T04:25:45.179Z,9.40
2019-05-13T04:28:16.840Z,9.53
2019-05-13T04:30:46.974Z,8.90
2019-05-13T04:33:16.295Z,9.58
2019-05-13T04:35:46.110Z,9.88
2019-05-13T04:38:18.427Z,9.30
2019-05-13T04:40:48.502Z,8.20
2019-05-13T04:43:19.130Z,9.25
2019-05-13T04:45:52.217Z,9.35
2019-05-13T04:48:22.910Z,8.68
2019-05-13T04:50:53.316Z,9.28
2019-05-13T04:53:23.109Z,11.33
2019-05-13T04:55:52.946Z,9.17
2019-05-13T04:58:25.144Z,9.70
2019-05-13T05:01:52.154Z,10.28
2019-05-13T05:04:31.073Z,9.63
2019-05-13T05:07:25.716Z,9.38
2019-05-13T05:10:42.880Z,9.03
2019-05-13T05:13:36.843Z,9.20
2019-05-13T05:16:32.528Z,8.55
2019-05-13T05:19:37.084Z,8.93
2019-05-13T05:22:25.119Z,9.98
2019-05-13T05:25:37.308Z,8.15
2019-05-13T05:28:38.289Z,8.17
2019-05-13T05:31:44.482Z,8.98
2019-05-13T05:34:58.033Z,8.65
2019-05-13T05:38:05.145Z,8.25
2019-05-13T05:40:36.323Z,7.17
2019-05-13T05:43:07.684Z,6.60
2019-05-13T05:45:41.488Z,6.92
2019-05-13T05:48:12.497Z,7.20
2019-05-13T05:50:43.373Z,7.35
2019-05-13T05:53:17.728Z,6.92
2019-05-13T05:55:51.775Z,6.13
2019-05-13T05:58:24.946Z,6.25
2019-05-13T06:00:56.971Z,5.83
2019-05-13T06:03:32.708Z,6.95
2019-05-13T06:06:03.778Z,6.17
2019-05-13T06:08:33.199Z,6.42
2019-05-13T06:11:11.723Z,6.70
2019-05-13T06:13:44.706Z,5.47
2019-05-13T06:16:21.799Z,7.33
2019-05-13T06:18:58.112Z,4.87
2019-05-13T06:21:33.728Z,4.67
2019-05-13T06:24:03.555Z,6.25
2019-05-13T06:26:37.340Z,5.22
2019-05-13T06:29:12.830Z,4.90
2019-05-13T06:31:44.452Z,4.80
2019-05-13T06:34:13.974Z,6.40
2019-05-13T06:36:49.357Z,4.50
2019-05-13T06:39:22.074Z,4.80
2019-05-13T06:41:53.594Z,4.50
2019-05-13T06:44:24.551Z,4.42
2019-05-13T06:46:56.883Z,4.65
2019-05-13T06:49:26.590Z,4.90
2019-05-13T06:51:56.884Z,4.00
2019-05-13T06:54:33.307Z,4.10
2019-05-13T06:57:07.420Z,5.85
2019-05-13T06:59:39.314Z,3.98
2019-05-13T07:09:51.763Z,4.17
2019-05-13T07:12:22.488Z,7.13
2019-05-13T07:14:53.622Z,3.73
2019-05-13T07:17:25.972Z,3.77
2019-05-13T07:20:02.304Z,4.90
2019-05-13T07:22:32.427Z,3.73
2019-05-13T07:25:11.270Z,4.80
2019-05-13T07:27:42.536Z,3.60
2019-05-13T07:30:14.723Z,3.70
2019-05-13T07:32:49.465Z,4.00
2019-05-13T07:35:25.058Z,4.97
2019-05-13T07:37:56.027Z,4.13
2019-05-13T08:05:24.773Z,3.10
2019-05-13T08:07:58.290Z,4.67
2019-05-13T08:55:21.491Z,2.87
2019-05-13T09:00:46.477Z,2.43
2019-05-13T09:03:15.931Z,3.43
2019-05-13T09:05:45.035Z,5.53
2019-05-13T09:08:14.784Z,6.80
2019-05-13T09:13:12.271Z,3.92
2019-05-13T09:15:42.283Z,3.33
2019-05-13T09:18:11.897Z,4.10
2019-05-13T09:20:41.711Z,5.78
2019-05-13T09:23:12.213Z,5.20
2019-05-13T09:25:41.716Z,3.42
2019-05-13T10:48:14.283Z,2.10
2019-05-13T10:50:43.742Z,3.77
2019-05-13T11:15:45.341Z,2.33
2019-05-13T11:18:19.444Z,2.83
2019-05-13T11:20:45.882Z,2.73
2019-05-13T14:10:53.284Z,2.17
2019-05-13T14:13:23.341Z,1.97
2019-05-13T14:15:53.092Z,1.87
2019-05-13T14:18:26.581Z,2.60
2019-05-13T14:20:54.316Z,2.40
2019-05-13T14:23:32.151Z,2.53
2019-05-13T14:26:01.758Z,1.77
2019-05-13T14:28:32.804Z,1.93
2019-05-13T14:31:05.689Z,2.20
2019-05-13T14:33:35.853Z,1.90
2019-05-13T14:36:05.234Z,1.67
2019-05-13T14:38:35.627Z,2.57
2019-05-13T14:41:08.552Z,2.43
2019-05-13T14:46:04.722Z,2.27
2019-05-13T14:48:34.315Z,3.57
2019-05-13T14:51:03.908Z,2.27
2019-05-13T14:53:35.249Z,1.60
2019-05-13T14:56:04.760Z,2.17
2019-05-13T14:58:34.446Z,1.63
2019-05-13T15:01:15.717Z,2.00
2019-05-13T18:51:04.606Z,2.90
2019-05-13T18:53:34.051Z,2.50
2019-05-13T18:56:12.662Z,5.50
2019-05-13T18:58:42.286Z,2.13
2019-05-13T19:01:11.737Z,2.13
2019-05-13T19:03:41.527Z,3.50
2019-05-13T19:06:11.737Z,3.27
2019-05-13T19:08:41.346Z,5.27
2019-05-13T19:11:35.081Z,5.37
2019-05-13T19:14:08.839Z,4.80
2019-05-13T19:16:42.390Z,4.27
2019-05-13T19:19:23.555Z,2.50
2019-05-13T19:21:53.106Z,3.77
2019-05-13T19:24:22.509Z,5.67
2019-05-13T19:26:52.151Z,3.10
2019-05-13T19:29:21.876Z,2.27
2019-05-13T19:31:54.692Z,2.40
2019-05-13T19:34:32.312Z,2.47
2019-05-13T19:37:02.324Z,3.83
2019-05-13T19:39:32.081Z,5.13
2019-05-13T19:42:04.158Z,2.63
2019-05-13T19:44:33.570Z,2.07
2019-05-13T19:47:03.165Z,4.33
2019-05-13T19:49:36.793Z,4.73
2019-05-13T19:52:03.342Z,3.30
2019-05-13T19:54:32.825Z,3.80
2019-05-13T19:57:03.437Z,4.77
2019-05-13T19:59:33.510Z,4.00
2019-05-13T20:02:03.283Z,3.70
2019-05-13T20:04:33.024Z,4.07
2019-05-13T20:07:02.396Z,3.43
2019-05-13T20:09:32.337Z,5.27
2019-05-13T20:12:03.871Z,3.53
2019-05-13T20:14:35.247Z,3.90
2019-05-13T20:17:04.553Z,3.23
2019-05-13T20:19:46.566Z,2.83
2019-05-13T20:22:06.715Z,2.93
2019-05-13T20:24:36.146Z,2.23
2019-05-13T20:27:05.275Z,2.93
2019-05-13T20:29:34.523Z,1.37
2019-05-13T20:32:03.898Z,2.93
2019-05-13T20:34:33.359Z,2.93
2019-05-13T20:37:02.988Z,4.10
2019-05-13T20:39:32.191Z,3.17
2019-05-13T20:42:01.938Z,3.23
2019-05-13T20:44:31.384Z,2.50
2019-05-13T20:47:01.628Z,4.87
2019-05-13T20:49:31.535Z,4.67
2019-05-13T20:52:01.146Z,4.00
2019-05-13T20:54:31.542Z,3.57
2019-05-13T20:57:02.354Z,3.20
2019-05-13T20:59:34.256Z,4.77
2019-05-13T21:02:03.281Z,2.17
2019-05-13T21:04:33.019Z,2.07
2019-05-13T21:07:04.181Z,3.30
2019-05-13T21:09:34.852Z,2.17
2019-05-13T21:12:05.471Z,3.30
2019-05-13T21:14:35.230Z,2.60
2019-05-13T21:17:04.974Z,2.98
2019-05-13T21:19:39.288Z,2.72
2019-05-13T21:22:05.696Z,2.17
2019-05-13T21:24:34.740Z,2.75
2019-05-13T21:27:06.602Z,3.05
2019-05-13T21:29:37.998Z,2.10
2019-05-13T21:32:11.803Z,2.87
2019-05-13T21:34:43.279Z,3.05
2019-05-13T21:37:12.943Z,2.42
2019-05-13T21:39:43.109Z,2.02
2019-05-13T21:42:12.502Z,3.00
2019-05-13T21:44:42.110Z,1.60
2019-05-13T21:47:11.809Z,2.10
2019-05-13T21:49:42.337Z,2.02
2019-05-13T21:52:11.913Z,2.37
2019-05-13T21:54:42.189Z,2.70
2019-05-13T21:57:12.598Z,3.35
2019-05-13T21:59:45.115Z,2.50
2019-05-13T22:02:14.706Z,3.67
2019-05-13T22:19:41.980Z,1.73
2019-05-13T22:22:11.896Z,1.60
2019-05-13T22:24:42.019Z,1.87
2019-05-13T22:27:13.226Z,1.93
2019-05-13T22:29:42.597Z,2.37
2019-05-13T22:32:12.298Z,2.70
2019-05-13T22:34:43.069Z,2.07
2019-05-13T22:37:12.730Z,4.40
2019-05-13T22:39:42.378Z,2.63
2019-05-13T22:42:12.597Z,3.73
2019-05-13T22:44:42.077Z,2.33
2019-05-13T22:47:13.322Z,2.10
2019-05-13T22:49:42.553Z,2.00
2019-05-13T22:52:11.843Z,3.47
2019-05-13T22:54:41.419Z,2.67
2019-05-13T22:57:11.893Z,2.92
2019-05-13T22:59:41.870Z,2.50
2019-05-13T23:02:11.283Z,3.85
2019-05-13T23:04:41.829Z,4.53
2019-05-13T23:07:11.929Z,2.87
2019-05-13T23:09:42.433Z,3.85
2019-05-13T23:12:12.407Z,2.90
2019-05-13T23:14:42.017Z,3.20
2019-05-13T23:17:12.547Z,2.58
2019-05-13T23:19:42.455Z,4.27
2019-05-13T23:22:12.186Z,3.47
2019-05-13T23:24:41.841Z,2.20
2019-05-13T23:27:11.998Z,3.00
2019-05-13T23:29:42.002Z,3.10
2019-05-13T23:32:12.026Z,2.02
2019-05-13T23:34:42.296Z,4.20
2019-05-13T23:37:12.015Z,2.02
2019-05-13T23:39:41.902Z,2.42
2019-05-13T23:42:12.151Z,1.95
2019-05-13T23:44:41.765Z,4.10
2019-05-13T23:47:11.646Z,2.95
2019-05-13T23:49:42.228Z,2.35
2019-05-13T23:52:12.118Z,3.85
2019-05-13T23:54:42.407Z,2.85
2019-05-13T23:57:12.094Z,3.72
2019-05-13T23:59:41.949Z,4.37
